Time;durP1;ratioP1;P1;durP2;ratioP2;P2;SDS_P1;SDS_P2;PMS_P1;PMS_P2;Temp;Humidity;BMP_temperature;BMP_pressure;BME280_temperature;BME280_humidity;BME280_pressure;Samples;Min_cycle;Max_cycle;Signal;HPM_P1;HPM_P2
2022/05/21 00:00:30;;;;;;;6.30;3.80;;;;;;;;;;5042005;28;20492;-90
2022/05/21 00:02:58;;;;;;;4.80;3.10;;;;;;;;;;5054707;28;20084;-90
2022/05/21 00:05:28;;;;;;;10.43;3.47;;;;;;;;;;5051883;28;20053;-90
2022/05/21 00:07:56;;;;;;;8.77;3.25;;;;;;;;;;5052381;28;20081;-91
2022/05/21 00:10:27;;;;;;;6.55;3.20;;;;;;;;;;5050386;28;20064;-90
2022/05/21 00:12:55;;;;;;;6.50;3.70;;;;;;;;;;5050980;28;20079;-90
2022/05/21 00:15:26;;;;;;;6.40;3.83;;;;;;;;;;5049385;28;20152;-89
2022/05/21 00:17:54;;;;;;;10.18;3.88;;;;;;;;;;5050997;28;20400;-90
2022/05/21 00:23:13;;;;;;;8.13;3.45;;;;;;;;;;5047577;28;20527;-88
2022/05/21 00:25:43;;;;;;;9.52;3.90;;;;;;;;;;5051152;28;20077;-88
2022/05/21 00:28:12;;;;;;;5.82;3.40;;;;;;;;;;5044854;28;20123;-88
2022/05/21 00:30:40;;;;;;;5.22;3.17;;;;;;;;;;5043788;28;20140;-88
2022/05/21 00:33:08;;;;;;;6.97;3.78;;;;;;;;;;5046251;28;20053;-87
2022/05/21 00:35:37;;;;;;;8.85;3.47;;;;;;;;;;5049676;28;20048;-88
2022/05/21 00:38:05;;;;;;;9.35;4.30;;;;;;;;;;5056760;28;20072;-88
2022/05/21 00:40:34;;;;;;;8.35;4.43;;;;;;;;;;5054714;28;20128;-88
2022/05/21 00:43:04;;;;;;;7.07;3.47;;;;;;;;;;5050751;28;20066;-88
2022/05/21 00:45:33;;;;;;;6.82;3.60;;;;;;;;;;5050290;28;20048;-89
2022/05/21 00:48:01;;;;;;;9.00;3.53;;;;;;;;;;5051913;28;20357;-89
2022/05/21 00:50:30;;;;;;;9.23;3.75;;;;;;;;;;5033893;28;20472;-88
2022/05/21 00:53:00;;;;;;;8.38;3.22;;;;;;;;;;5052300;28;20095;-89
2022/05/21 00:55:29;;;;;;;7.43;3.85;;;;;;;;;;5052710;28;20120;-89
2022/05/21 01:00:47;;;;;;;7.18;3.33;;;;;;;;;;5048879;28;20051;-88
2022/05/21 01:03:17;;;;;;;8.05;3.78;;;;;;;;;;5052466;28;20084;-88
2022/05/21 01:05:46;;;;;;;5.60;3.78;;;;;;;;;;5041576;28;20036;-88
2022/05/21 01:08:15;;;;;;;6.97;3.35;;;;;;;;;;5044162;28;20083;-88
2022/05/21 01:10:46;;;;;;;4.57;3.42;;;;;;;;;;5047676;28;20044;-89
2022/05/21 01:13:16;;;;;;;7.72;3.25;;;;;;;;;;5051028;28;20036;-89
2022/05/21 01:15:46;;;;;;;5.63;3.53;;;;;;;;;;5042545;28;20129;-89
2022/05/21 01:18:15;;;;;;;7.40;3.05;;;;;;;;;;5050972;28;20073;-89
2022/05/21 01:20:47;;;;;;;8.85;4.32;;;;;;;;;;5046722;28;20095;-89
2022/05/21 01:23:18;;;;;;;7.00;3.60;;;;;;;;;;5045329;28;20067;-89
2022/05/21 01:25:47;;;;;;;6.72;3.20;;;;;;;;;;5052336;28;20057;-89
2022/05/21 01:28:17;;;;;;;9.50;3.25;;;;;;;;;;5050766;28;20087;-89
2022/05/21 01:30:47;;;;;;;6.45;3.42;;;;;;;;;;5052613;28;20045;-89
2022/05/21 01:33:17;;;;;;;5.82;2.80;;;;;;;;;;5050793;28;20043;-89
2022/05/21 01:35:46;;;;;;;4.70;3.08;;;;;;;;;;5051860;28;20091;-89
2022/05/21 01:38:18;;;;;;;5.95;3.80;;;;;;;;;;5048999;28;20124;-89
2022/05/21 01:40:46;;;;;;;4.50;3.20;;;;;;;;;;5052616;28;20132;-89
2022/05/21 01:46:01;;;;;;;8.48;2.85;;;;;;;;;;5037430;28;20052;-90
2022/05/21 01:48:34;;;;;;;5.22;3.00;;;;;;;;;;5050327;28;20094;-90
2022/05/21 01:51:08;;;;;;;4.63;2.80;;;;;;;;;;5050570;28;20117;-89
2022/05/21 01:53:38;;;;;;;4.68;2.60;;;;;;;;;;5049901;28;20123;-89
2022/05/21 01:56:11;;;;;;;3.40;2.63;;;;;;;;;;5050177;28;20464;-90
2022/05/21 01:58:40;;;;;;;4.57;3.22;;;;;;;;;;5049180;28;20072;-89
2022/05/21 02:01:09;;;;;;;4.65;3.00;;;;;;;;;;5048403;28;20072;-90
2022/05/21 02:03:38;;;;;;;5.28;2.75;;;;;;;;;;5048498;28;20111;-89
2022/05/21 02:06:09;;;;;;;4.50;2.80;;;;;;;;;;5039969;28;20105;-90
2022/05/21 02:08:40;;;;;;;4.45;2.83;;;;;;;;;;5047916;28;20063;-89
2022/05/21 02:11:08;;;;;;;4.07;2.38;;;;;;;;;;5040218;28;20049;-90
2022/05/21 02:13:39;;;;;;;5.28;2.72;;;;;;;;;;5049670;28;20384;-90
2022/05/21 02:16:10;;;;;;;6.10;2.75;;;;;;;;;;5051990;28;20153;-90
2022/05/21 02:18:38;;;;;;;4.20;2.72;;;;;;;;;;5051187;28;20136;-90
2022/05/21 02:21:10;;;;;;;5.72;2.70;;;;;;;;;;5042120;28;20041;-90
2022/05/21 02:23:39;;;;;;;6.43;2.58;;;;;;;;;;5035020;28;20137;-90
2022/05/21 02:26:10;;;;;;;3.17;2.50;;;;;;;;;;5049964;28;20055;-90
2022/05/21 02:28:39;;;;;;;5.28;2.70;;;;;;;;;;5050185;28;20045;-91
2022/05/21 02:31:10;;;;;;;6.68;3.05;;;;;;;;;;5048472;28;20053;-90
2022/05/21 02:33:39;;;;;;;4.60;2.97;;;;;;;;;;5049516;28;20484;-90
2022/05/21 02:36:10;;;;;;;5.35;3.08;;;;;;;;;;5051531;28;20152;-89
2022/05/21 02:41:26;;;;;;;4.05;2.58;;;;;;;;;;5038901;28;20080;-90
2022/05/21 02:43:54;;;;;;;5.75;3.10;;;;;;;;;;5048486;28;20081;-89
2022/05/21 02:46:23;;;;;;;5.50;2.97;;;;;;;;;;5043813;28;20045;-90
2022/05/21 02:48:51;;;;;;;4.97;2.65;;;;;;;;;;5052118;28;20045;-89
2022/05/21 02:51:19;;;;;;;5.35;3.53;;;;;;;;;;5048462;28;20447;-89
2022/05/21 02:53:49;;;;;;;5.40;3.35;;;;;;;;;;5055194;28;20075;-89
2022/05/21 02:56:18;;;;;;;6.50;2.83;;;;;;;;;;5052787;28;20045;-90
2022/05/21 02:58:46;;;;;;;6.57;3.38;;;;;;;;;;5053438;28;20468;-89
2022/05/21 03:01:14;;;;;;;5.85;2.70;;;;;;;;;;5050348;28;20049;-89
2022/05/21 03:03:43;;;;;;;5.03;3.17;;;;;;;;;;5053857;28;20485;-89
2022/05/21 03:06:11;;;;;;;5.22;2.83;;;;;;;;;;5052915;28;20125;-89
2022/05/21 03:11:26;;;;;;;7.07;3.20;;;;;;;;;;5048987;28;20140;-89
2022/05/21 03:13:56;;;;;;;8.90;3.00;;;;;;;;;;5054432;28;20504;-89
2022/05/21 03:16:24;;;;;;;5.63;3.20;;;;;;;;;;5053081;28;20139;-89
2022/05/21 03:18:52;;;;;;;4.90;2.70;;;;;;;;;;5052972;28;20047;-89
2022/05/21 03:21:21;;;;;;;5.78;3.20;;;;;;;;;;5052415;28;20055;-90
2022/05/21 03:23:49;;;;;;;5.00;3.20;;;;;;;;;;5052152;28;20407;-89
2022/05/21 03:26:18;;;;;;;8.02;3.50;;;;;;;;;;5054221;28;20041;-89
2022/05/21 03:28:47;;;;;;;5.28;3.20;;;;;;;;;;5046344;28;20136;-89
2022/05/21 03:31:16;;;;;;;6.88;3.85;;;;;;;;;;5050670;28;20350;-89
2022/05/21 03:33:44;;;;;;;6.85;3.80;;;;;;;;;;5051993;28;20288;-89
2022/05/21 03:36:12;;;;;;;5.85;3.70;;;;;;;;;;5050217;28;20048;-89
2022/05/21 03:38:41;;;;;;;5.55;3.10;;;;;;;;;;5049569;28;20128;-89
2022/05/21 03:41:09;;;;;;;4.78;3.15;;;;;;;;;;5053503;28;20059;-89
2022/05/21 03:43:37;;;;;;;5.72;2.90;;;;;;;;;;5052807;28;20136;-89
2022/05/21 03:46:10;;;;;;;7.22;3.50;;;;;;;;;;5053418;28;20587;-89
2022/05/21 03:48:38;;;;;;;7.85;3.35;;;;;;;;;;5051919;28;20599;-89
2022/05/21 03:51:10;;;;;;;4.95;2.75;;;;;;;;;;5051477;28;20049;-89
2022/05/21 03:53:38;;;;;;;6.88;3.25;;;;;;;;;;5047665;28;20537;-89
2022/05/21 03:56:10;;;;;;;5.68;3.30;;;;;;;;;;5051053;28;20076;-89
2022/05/21 03:58:38;;;;;;;6.03;2.53;;;;;;;;;;5052072;28;20132;-89
2022/05/21 04:01:11;;;;;;;3.85;3.00;;;;;;;;;;5052945;28;20127;-89
2022/05/21 04:03:39;;;;;;;4.05;2.50;;;;;;;;;;5049639;28;20081;-89
2022/05/21 04:06:12;;;;;;;4.68;2.58;;;;;;;;;;5052560;28;20140;-88
2022/05/21 04:08:40;;;;;;;4.57;2.30;;;;;;;;;;5051132;28;20079;-89
2022/05/21 04:11:09;;;;;;;3.92;2.75;;;;;;;;;;5039410;28;20068;-89
2022/05/21 04:13:37;;;;;;;5.28;2.92;;;;;;;;;;5051280;28;20540;-89
2022/05/21 04:16:08;;;;;;;3.00;2.03;;;;;;;;;;5049198;28;20588;-88
2022/05/21 04:18:38;;;;;;;3.30;2.10;;;;;;;;;;5046981;28;20136;-89
2022/05/21 04:21:10;;;;;;;3.95;2.50;;;;;;;;;;5049488;28;20147;-89
2022/05/21 04:23:38;;;;;;;5.65;2.50;;;;;;;;;;5049131;28;20100;-89
2022/05/21 04:26:09;;;;;;;3.55;2.17;;;;;;;;;;5053008;28;20076;-89
2022/05/21 04:28:38;;;;;;;4.10;2.60;;;;;;;;;;5049002;28;20057;-89
2022/05/21 04:31:09;;;;;;;3.95;2.28;;;;;;;;;;5048915;28;20381;-89
2022/05/21 04:33:39;;;;;;;6.95;2.63;;;;;;;;;;5051617;28;20119;-89
2022/05/21 04:36:19;;;;;;;5.28;3.13;;;;;;;;;;5051653;28;20191;-89
2022/05/21 04:38:48;;;;;;;3.13;2.10;;;;;;;;;;5051746;28;20136;-88
2022/05/21 04:41:17;;;;;;;3.10;2.10;;;;;;;;;;5054001;28;20064;-88
2022/05/21 04:43:45;;;;;;;5.10;1.98;;;;;;;;;;5048527;28;20089;-89
2022/05/21 04:46:15;;;;;;;4.20;1.95;;;;;;;;;;5050161;28;20467;-89
2022/05/21 04:48:46;;;;;;;4.38;2.60;;;;;;;;;;5049425;28;20130;-88
2022/05/21 04:51:30;;;;;;;5.45;2.75;;;;;;;;;;5050696;28;20152;-89
2022/05/21 04:53:59;;;;;;;3.20;2.10;;;;;;;;;;5052748;28;20100;-89
2022/05/21 04:56:27;;;;;;;3.42;2.28;;;;;;;;;;5050888;28;20555;-89
2022/05/21 04:59:11;;;;;;;4.47;2.03;;;;;;;;;;5049360;28;20047;-89
2022/05/21 05:01:40;;;;;;;3.45;2.30;;;;;;;;;;5050461;28;20049;-88
2022/05/21 05:04:10;;;;;;;3.20;2.28;;;;;;;;;;5049296;28;20044;-88
2022/05/21 05:06:39;;;;;;;7.07;2.28;;;;;;;;;;5048690;28;20128;-89
2022/05/21 05:09:09;;;;;;;5.03;2.60;;;;;;;;;;5051470;28;20060;-89
2022/05/21 05:11:37;;;;;;;3.35;2.47;;;;;;;;;;5049435;28;20128;-90
2022/05/21 05:14:06;;;;;;;3.20;2.35;;;;;;;;;;5035374;28;20484;-90
2022/05/21 05:16:34;;;;;;;4.20;2.20;;;;;;;;;;5050563;28;20084;-89
2022/05/21 05:19:03;;;;;;;5.07;2.63;;;;;;;;;;5052278;28;20159;-89
2022/05/21 05:21:33;;;;;;;4.15;2.40;;;;;;;;;;5051924;28;20523;-91
2022/05/21 05:24:05;;;;;;;3.53;2.13;;;;;;;;;;5049161;28;20136;-92
2022/05/21 05:26:41;;;;;;;4.55;2.00;;;;;;;;;;5054130;28;20071;-90
2022/05/21 05:29:09;;;;;;;4.07;2.13;;;;;;;;;;5051977;28;20072;-92
2022/05/21 05:35:09;;;;;;;3.03;2.15;;;;;;;;;;5053831;28;20052;-92
2022/05/21 05:37:39;;;;;;;5.25;2.53;;;;;;;;;;5053060;28;20072;-92
2022/05/21 05:40:12;;;;;;;3.15;2.10;;;;;;;;;;5049854;28;20146;-92
2022/05/21 05:42:42;;;;;;;5.57;2.35;;;;;;;;;;5052864;28;20044;-92
2022/05/21 05:45:12;;;;;;;3.83;2.55;;;;;;;;;;5053268;28;20091;-91
2022/05/21 05:47:41;;;;;;;4.80;2.45;;;;;;;;;;5048017;28;20441;-91
2022/05/21 05:50:10;;;;;;;3.35;2.00;;;;;;;;;;5043832;28;20124;-90
2022/05/21 05:52:54;;;;;;;4.35;2.50;;;;;;;;;;5047886;28;20552;-91
2022/05/21 05:55:24;;;;;;;3.42;2.22;;;;;;;;;;5051531;28;20127;-91
2022/05/21 06:00:53;;;;;;;2.92;1.95;;;;;;;;;;5053023;28;20110;-91
2022/05/21 06:03:22;;;;;;;3.00;1.67;;;;;;;;;;5053955;28;20271;-91
2022/05/21 06:05:51;;;;;;;2.38;2.00;;;;;;;;;;5061550;28;20052;-93
2022/05/21 06:08:20;;;;;;;4.57;2.38;;;;;;;;;;5058238;28;20071;-91
2022/05/21 06:11:17;;;;;;;2.47;1.85;;;;;;;;;;5049820;28;20068;-91
2022/05/21 06:14:16;;;;;;;2.58;2.17;;;;;;;;;;5052919;28;20048;-91
2022/05/21 06:16:46;;;;;;;2.65;1.63;;;;;;;;;;5051999;28;20575;-91
2022/05/21 06:19:17;;;;;;;3.75;1.70;;;;;;;;;;5050389;28;20084;-91
2022/05/21 06:21:48;;;;;;;4.38;2.20;;;;;;;;;;5053779;28;20076;-91
2022/05/21 06:24:18;;;;;;;2.70;2.20;;;;;;;;;;5044040;28;20069;-91
2022/05/21 06:26:46;;;;;;;3.03;1.90;;;;;;;;;;5040730;28;20564;-91
2022/05/21 06:29:19;;;;;;;5.28;2.00;;;;;;;;;;5052511;28;20116;-91
2022/05/21 06:31:50;;;;;;;2.97;1.50;;;;;;;;;;5047720;28;20076;-90
2022/05/21 06:40:12;;;;;;;1.58;1.30;;;;;;;;;;5051524;28;20068;-91
2022/05/21 06:42:42;;;;;;;1.70;1.42;;;;;;;;;;5053410;28;20055;-92
2022/05/21 06:45:11;;;;;;;3.35;1.55;;;;;;;;;;5056501;28;20073;-92
2022/05/21 06:48:08;;;;;;;1.98;1.52;;;;;;;;;;5042564;28;20599;-92
2022/05/21 06:50:39;;;;;;;;;;;;;;;;;;5041037;28;20076;-90
2022/05/21 06:53:07;;;;;;;;;;;;;;;;;;5054209;28;19928;-92
2022/05/21 06:55:36;;;;;;;;;;;;;;;;;;5055105;28;20299;-91
2022/05/21 07:03:44;;;;;;;;;;;;;;;;;;5048999;28;20441;-92
2022/05/21 07:08:57;;;;;;;;;;;;;;;;;;5052172;28;19982;-91
2022/05/21 07:11:26;;;;;;;;;;;;;;;;;;5041031;28;19968;-91
2022/05/21 07:13:55;;;;;;;;;;;;;;;;;;5054145;28;19978;-91
2022/05/21 07:16:23;;;;;;;;;;;;;;;;;;5053988;28;20311;-91
2022/05/21 07:21:41;;;;;;;;;;;;;;;;;;5051802;28;19921;-90
2022/05/21 07:24:18;;;;;;;;;;;;;;;;;;5048884;28;19920;-92
2022/05/21 07:29:46;;;;;;;;;;;;;;;;;;5013035;28;20440;-91
2022/05/21 07:37:47;;;;;;;;;;;;;;;;;;5047060;28;19925;-91
2022/05/21 07:40:16;;;;;;;;;;;;;;;;;;5052090;28;19920;-90
2022/05/21 07:43:13;;;;;;;;;;;;;;;;;;5083469;27;19920;-75
2022/05/21 07:45:41;;;;;;;;;;;;;;;;;;5086471;28;20311;-75
2022/05/21 07:48:11;;;;;;;;;;;;;;;;;;5079943;27;19947;-75
2022/05/21 07:50:40;;;;;;;;;;;;;;;;;;5068698;28;19986;-75
2022/05/21 07:53:08;;;;;;;;;;;;;;;;;;5066960;28;19925;-76
2022/05/21 07:55:36;;;;;;;;;;;;;;;;;;5082441;28;19998;-76
2022/05/21 07:58:04;;;;;;;;;;;;;;;;;;5058621;28;19998;-76
2022/05/21 08:00:32;;;;;;;;;;;;;;;;;;5039013;28;19961;-76
2022/05/21 08:03:00;;;;;;;;;;;;;;;;;;5038541;28;19940;-75
2022/05/21 08:05:29;;;;;;;;;;;;;;;;;;5043432;28;20384;-76
2022/05/21 08:07:57;;;;;;;;;;;;;;;;;;5042072;28;20052;-76
2022/05/21 08:10:25;;;;;;;;;;;;;;;;;;5033630;28;19956;-76
2022/05/21 08:12:53;;;;;;;;;;;;;;;;;;5043988;28;20040;-76
2022/05/21 08:15:21;;;;;;;;;;;;;;;;;;5043421;28;20043;-76
2022/05/21 08:17:49;;;;;;;;;;;;;;;;;;5036041;28;19925;-76
2022/05/21 08:20:17;;;;;;;;;;;;;;;;;;5039781;28;20383;-77
2022/05/21 08:28:17;;;;;;;;;;;;;;;;;;5045323;28;19929;-75
2022/05/21 08:30:46;;;;;;;;;;;;;;;;;;5042626;28;19929;-77
2022/05/21 08:33:14;;;;;;;;;;;;;;;;;;5041079;28;19984;-75
2022/05/21 08:35:42;;;;;;;;;;;;;;;;;;5042207;28;19982;-77
2022/05/21 08:38:10;;;;;;;;;;;;;;;;;;5043998;28;19929;-79
2022/05/21 08:40:39;;;;;;;;;;;;;;;;;;5041788;28;19933;-77
2022/05/21 08:43:07;;;;;;;;;;;;;;;;;;5041810;28;19987;-76
2022/05/21 08:45:37;;;;;;;;;;;;;;;;;;5044684;28;19933;-75
2022/05/21 08:48:05;;;;;;;;;;;;;;;;;;5047011;28;19970;-78
2022/05/21 08:50:34;;;;;;;;;;;;;;;;;;5057600;28;20384;-77
2022/05/21 08:53:02;;;;;;;;;;;;;;;;;;5053960;28;19979;-77
2022/05/21 08:55:30;;;;;;;;;;;;;;;;;;5047983;28;20365;-77
2022/05/21 08:57:58;;;;;;;;;;;;;;;;;;5041512;28;19971;-77
2022/05/21 09:00:26;;;;;;;;;;;;;;;;;;5029315;28;19929;-76
2022/05/21 09:02:55;;;;;;;;;;;;;;;;;;5029583;28;19929;-77
2022/05/21 09:05:23;;;;;;;;;;;;;;;;;;5031211;28;19960;-77
2022/05/21 09:07:51;;;;;;;;;;;;;;;;;;5021028;28;19968;-77
2022/05/21 09:10:19;;;;;;;;;;;;;;;;;;5027190;28;20380;-78
2022/05/21 09:12:48;;;;;;;;;;;;;;;;;;5028764;28;20287;-78
2022/05/21 09:16:54;;;;;;;;;;;;;;;;;;5027329;28;19925;-77
2022/05/21 09:18:03;;;;;;;;;;;;;;;;;;5025572;28;19961;-77
2022/05/21 09:20:31;;;;;;;;;;;;;;;;;;5030829;28;20007;-78
2022/05/21 09:23:01;;;;;;;;;;;;;;;;;;5028022;28;19933;-78
2022/05/21 09:25:29;;;;;;;;;;;;;;;;;;5031211;28;19929;-77
2022/05/21 09:27:57;;;;;;;;;;;;;;;;;;5037906;28;20273;-77
2022/05/21 09:30:26;;;;;;;;;;;;;;;;;;5043421;28;19929;-78
2022/05/21 09:32:54;;;;;;;;;;;;;;;;;;5047204;28;20012;-77
2022/05/21 09:35:23;;;;;;;;;;;;;;;;;;5049262;28;20187;-75
2022/05/21 09:37:51;;;;;;;;;;;;;;;;;;5038044;28;19933;-78
2022/05/21 09:40:22;;;;;;;;;;;;;;;;;;5027237;28;19937;-78
2022/05/21 09:45:39;;;;;;;;;;;;;;;;;;5031135;28;20284;-74
2022/05/21 09:48:07;;;;;;;;;;;;;;;;;;5029228;28;20404;-77
2022/05/21 09:50:35;;;;;;;;;;;;;;;;;;5032380;28;19972;-75
2022/05/21 09:53:03;;;;;;;;;;;;;;;;;;5031025;28;19971;-75
2022/05/21 09:55:31;;;;;;;;;;;;;;;;;;5029917;28;20024;-75
2022/05/21 09:58:00;;;;;;;;;;;;;;;;;;5032873;28;19998;-74
2022/05/21 10:00:28;;;;;;;;;;;;;;;;;;5059404;28;19986;-75
2022/05/21 10:02:56;;;;;;;;;;;;;;;;;;5053398;28;19980;-76
2022/05/21 10:05:25;;;;;;;;;;;;;;;;;;5047179;28;20324;-76
2022/05/21 10:13:25;;;;;;;;;;;;;;;;;;5031156;28;19929;-77
2022/05/21 10:15:56;;;;;;;;;;;;;;;;;;5032285;28;19933;-78
2022/05/21 10:18:24;;;;;;;;;;;;;;;;;;5029887;28;19929;-77
2022/05/21 10:20:54;;;;;;;;;;;;;;;;;;5029076;28;20461;-76
2022/05/21 10:23:22;;;;;;;;;;;;;;;;;;5030788;28;20000;-76
2022/05/21 10:25:51;;;;;;;;;;;;;;;;;;5030614;28;19975;-77
2022/05/21 10:28:20;;;;;;;;;;;;;;;;;;5028379;28;19933;-76
2022/05/21 10:30:48;;;;;;;;;;;;;;;;;;5026784;28;20032;-76
2022/05/21 10:33:17;;;;;;;;;;;;;;;;;;5032682;28;19945;-78
2022/05/21 10:35:45;;;;;;;;;;;;;;;;;;5030841;28;20373;-76
2022/05/21 10:38:13;;;;;;;;;;;;;;;;;;5029411;28;19929;-76
2022/05/21 10:40:41;;;;;;;;;;;;;;;;;;5031019;28;19947;-75
2022/05/21 10:43:09;;;;;;;;;;;;;;;;;;5030610;28;20043;-78
2022/05/21 10:45:37;;;;;;;;;;;;;;;;;;5030235;28;19947;-77
2022/05/21 10:48:06;;;;;;;;;;;;;;;;;;5027367;28;19929;-77
2022/05/21 10:50:34;;;;;;;;;;;;;;;;;;5028135;28;19979;-76
2022/05/21 10:53:02;;;;;;;;;;;;;;;;;;5024096;28;19929;-76
2022/05/21 10:55:31;;;;;;;;;;;;;;;;;;5027090;28;19963;-77
2022/05/21 10:57:59;;;;;;;;;;;;;;;;;;5021048;28;20015;-76
2022/05/21 11:00:27;;;;;;;;;;;;;;;;;;5028774;28;19929;-77
2022/05/21 11:02:55;;;;;;;;;;;;;;;;;;5032629;28;19933;-76
2022/05/21 11:05:23;;;;;;;;;;;;;;;;;;5025818;28;19972;-77
2022/05/21 11:07:52;;;;;;;;;;;;;;;;;;5032737;28;20347;-77
2022/05/21 11:10:22;;;;;;;;;;;;;;;;;;5048924;28;20388;-75
2022/05/21 11:12:51;;;;;;;;;;;;;;;;;;5050101;28;19953;-77
2022/05/21 11:15:19;;;;;;;;;;;;;;;;;;5047880;28;19968;-79
2022/05/21 11:17:47;;;;;;;;;;;;;;;;;;5045572;28;19933;-78
2022/05/21 11:20:15;;;;;;;;;;;;;;;;;;5050073;28;19978;-79
2022/05/21 11:22:44;;;;;;;;;;;;;;;;;;5048948;28;19960;-77
2022/05/21 11:25:13;;;;;;;;;;;;;;;;;;5045606;28;20184;-77
2022/05/21 11:27:41;;;;;;;;;;;;;;;;;;5041628;28;20362;-78
2022/05/21 11:30:09;;;;;;;;;;;;;;;;;;5028504;28;19968;-79
2022/05/21 11:38:09;;;;;;;;;;;;;;;;;;5024813;28;19961;-78
2022/05/21 11:40:38;;;;;;;;;;;;;;;;;;5028380;28;20439;-77
2022/05/21 11:43:06;;;;;;;;;;;;;;;;;;5028521;28;20380;-75
2022/05/21 11:45:34;;;;;;;;;;;;;;;;;;5030139;28;20410;-78
2022/05/21 11:48:02;;;;;;;;;;;;;;;;;;5029107;28;20842;-77
2022/05/21 11:50:30;;;;;;;;;;;;;;;;;;5022852;28;19979;-79
2022/05/21 11:52:58;;;;;;;;;;;;;;;;;;5025925;28;20292;-78
2022/05/21 11:55:26;;;;;;;;;;;;;;;;;;5027612;28;20425;-78
2022/05/21 11:57:55;;;;;;;;;;;;;;;;;;5037166;28;20380;-77
2022/05/21 12:00:24;;;;;;;;;;;;;;;;;;5047049;28;19925;-77
2022/05/21 12:02:53;;;;;;;;;;;;;;;;;;5044502;28;19983;-75
2022/05/21 12:05:21;;;;;;;;;;;;;;;;;;5042618;28;19925;-74
2022/05/21 12:07:49;;;;;;;;;;;;;;;;;;5031389;28;19979;-73
2022/05/21 12:10:17;;;;;;;;;;;;;;;;;;5022053;28;20359;-74
2022/05/21 12:12:47;;;;;;;;;;;;;;;;;;5027453;28;19933;-73
2022/05/21 12:15:16;;;;;;;;;;;;;;;;;;5028045;28;19964;-73
2022/05/21 12:17:44;;;;;;;;;;;;;;;;;;5027692;28;20028;-72
2022/05/21 12:20:12;;;;;;;;;;;;;;;;;;5027901;28;19929;-72
2022/05/21 12:22:40;;;;;;;;;;;;;;;;;;5026682;28;19964;-72
2022/05/21 12:25:09;;;;;;;;;;;;;;;;;;5025408;28;19951;-73
2022/05/21 12:27:37;;;;;;;;;;;;;;;;;;5030216;28;20276;-74
2022/05/21 12:30:05;;;;;;;;;;;;;;;;;;5033078;28;20012;-74
2022/05/21 12:32:33;;;;;;;;;;;;;;;;;;5026979;28;19988;-74
2022/05/21 12:35:02;;;;;;;;;;;;;;;;;;5030971;28;20361;-73
2022/05/21 12:37:30;;;;;;;;;;;;;;;;;;5033057;28;19956;-74
2022/05/21 12:39:59;;;;;;;;;;;;;;;;;;5049301;28;19929;-75
2022/05/21 12:42:27;;;;;;;;;;;;;;;;;;5050027;28;20024;-75
2022/05/21 12:44:55;;;;;;;;;;;;;;;;;;5041503;28;19975;-74
2022/05/21 12:47:23;;;;;;;;;;;;;;;;;;5049845;28;20024;-74
2022/05/21 12:49:51;;;;;;;;;;;;;;;;;;5033562;28;19978;-74
2022/05/21 12:52:19;;;;;;;;;;;;;;;;;;5022478;28;19973;-70
2022/05/21 12:54:47;;;;;;;;;;;;;;;;;;5021014;28;19980;-75
2022/05/21 12:57:16;;;;;;;;;;;;;;;;;;5030611;28;20011;-72
2022/05/21 12:59:44;;;;;;;;;;;;;;;;;;5028084;28;19961;-73
2022/05/21 13:02:12;;;;;;;;;;;;;;;;;;5032438;28;19929;-72
2022/05/21 13:04:41;;;;;;;;;;;;;;;;;;5033218;28;19976;-74
2022/05/21 13:07:09;;;;;;;;;;;;;;;;;;5029135;28;19969;-72
2022/05/21 13:09:37;;;;;;;;;;;;;;;;;;5023797;28;19933;-73
2022/05/21 13:12:05;;;;;;;;;;;;;;;;;;5030577;28;20434;-71
2022/05/21 13:14:33;;;;;;;;;;;;;;;;;;5034847;28;20032;-73
2022/05/21 13:17:01;;;;;;;;;;;;;;;;;;5032507;28;19931;-73
2022/05/21 13:19:30;;;;;;;;;;;;;;;;;;5028441;28;19929;-72
2022/05/21 13:21:58;;;;;;;;;;;;;;;;;;5033568;28;19929;-74
2022/05/21 13:24:26;;;;;;;;;;;;;;;;;;5024958;28;20032;-72
2022/05/21 13:26:54;;;;;;;;;;;;;;;;;;5031427;28;20019;-73
2022/05/21 13:29:22;;;;;;;;;;;;;;;;;;5050008;28;19964;-74
2022/05/21 13:31:50;;;;;;;;;;;;;;;;;;5047534;28;19968;-73
2022/05/21 13:34:18;;;;;;;;;;;;;;;;;;5047472;28;19925;-74
2022/05/21 13:36:47;;;;;;;;;;;;;;;;;;5050999;28;19996;-75
2022/05/21 13:39:15;;;;;;;;;;;;;;;;;;5047522;28;19967;-76
2022/05/21 13:41:43;;;;;;;;;;;;;;;;;;5044246;28;19971;-74
2022/05/21 13:44:12;;;;;;;;;;;;;;;;;;5048612;28;19925;-74
2022/05/21 13:46:40;;;;;;;;;;;;;;;;;;5052060;28;20410;-70
2022/05/21 13:49:08;;;;;;;;;;;;;;;;;;5052310;28;20016;-74
2022/05/21 13:51:37;;;;;;;;;;;;;;;;;;5050078;28;19929;-73
2022/05/21 13:54:05;;;;;;;;;;;;;;;;;;5051218;28;19986;-73
2022/05/21 13:56:33;;;;;;;;;;;;;;;;;;5052392;28;19971;-73
2022/05/21 13:59:01;;;;;;;;;;;;;;;;;;5034597;28;20380;-73
2022/05/21 14:01:29;;;;;;;;;;;;;;;;;;5026804;28;19963;-74
2022/05/21 14:03:58;;;;;;;;;;;;;;;;;;5031336;28;19929;-72
2022/05/21 14:06:26;;;;;;;;;;;;;;;;;;5028987;28;20379;-72
2022/05/21 14:08:54;;;;;;;;;;;;;;;;;;5028506;28;20430;-73
2022/05/21 14:11:23;;;;;;;;;;;;;;;;;;5031237;28;19979;-72
2022/05/21 14:13:51;;;;;;;;;;;;;;;;;;5029973;28;19999;-72
2022/05/21 14:16:19;;;;;;;;;;;;;;;;;;5032628;28;19925;-73
2022/05/21 14:18:48;;;;;;;;;;;;;;;;;;5038734;28;19967;-73
2022/05/21 14:21:16;;;;;;;;;;;;;;;;;;5051745;28;19951;-72
2022/05/21 14:23:44;;;;;;;;;;;;;;;;;;5049889;28;19935;-74
2022/05/21 14:26:17;;;;;;;;;;;;;;;;;;5046865;28;19955;-74
2022/05/21 14:28:45;;;;;;;;;;;;;;;;;;5034448;28;20024;-73
2022/05/21 14:31:13;;;;;;;;;;;;;;;;;;5031419;28;19964;-73
2022/05/21 14:33:41;;;;;;;;;;;;;;;;;;5029155;28;19968;-73
2022/05/21 14:36:12;;;;;;;;;;;;;;;;;;5025609;28;20359;-73
2022/05/21 14:38:40;;;;;;;;;;;;;;;;;;5028423;28;20020;-74
2022/05/21 14:41:14;;;;;;;;;;;;;;;;;;5028173;28;19991;-74
2022/05/21 14:43:43;;;;;;;;;;;;;;;;;;5028327;28;20056;-73
2022/05/21 14:48:54;;;;;;;;;;;;;;;;;;5029815;28;19956;-73
2022/05/21 14:54:13;;;;;;;;;;;;;;;;;;5026282;28;19925;-72
2022/05/21 14:56:41;;;;;;;;;;;;;;;;;;5020215;28;19995;-72
2022/05/21 14:59:09;;;;;;;;;;;;;;;;;;5032072;28;20036;-72
2022/05/21 15:01:38;;;;;;;;;;;;;;;;;;5030866;28;19925;-72
2022/05/21 15:04:06;;;;;;;;;;;;;;;;;;5029534;28;19995;-73
2022/05/21 15:06:34;;;;;;;;;;;;;;;;;;5016778;28;19925;-73
2022/05/21 15:09:05;;;;;;;;;;;;;;;;;;5026378;28;19933;-73
2022/05/21 15:11:33;;;;;;;;;;;;;;;;;;5031424;28;20020;-73
2022/05/21 15:14:01;;;;;;;;;;;;;;;;;;5030358;28;20016;-73
2022/05/21 15:16:29;;;;;;;;;;;;;;;;;;5031328;28;19991;-73
2022/05/21 15:18:59;;;;;;;;;;;;;;;;;;5047097;28;20356;-73
2022/05/21 15:21:28;;;;;;;;;;;;;;;;;;5045781;28;19933;-72
2022/05/21 15:23:56;;;;;;;;;;;;;;;;;;5040903;28;20292;-71
2022/05/21 15:26:24;;;;;;;;;;;;;;;;;;5045291;28;19936;-71
2022/05/21 15:28:53;;;;;;;;;;;;;;;;;;5045803;28;19975;-72
2022/05/21 15:31:21;;;;;;;;;;;;;;;;;;5044845;28;19996;-73
2022/05/21 15:33:49;;;;;;;;;;;;;;;;;;5047730;28;19951;-74
2022/05/21 15:36:17;;;;;;;;;;;;;;;;;;5048282;28;19964;-74
2022/05/21 15:38:47;;;;;;;;;;;;;;;;;;5047169;28;19931;-72
2022/05/21 15:41:15;;;;;;;;;;;;;;;;;;5047711;28;19929;-73
2022/05/21 15:43:43;;;;;;;;;;;;;;;;;;5045625;28;20021;-74
2022/05/21 15:46:14;;;;;;;;;;;;;;;;;;5047423;28;19925;-74
2022/05/21 15:48:43;;;;;;;;;;;;;;;;;;5047049;28;19933;-73
2022/05/21 15:51:14;;;;;;;;;;;;;;;;;;5049437;28;20388;-73
2022/05/21 15:53:45;;;;;;;;;;;;;;;;;;5048238;28;20026;-74
2022/05/21 15:56:13;;;;;;;;;;;;;;;;;;5038225;28;19958;-72
2022/05/21 15:58:41;;;;;;;;;;;;;;;;;;5049197;28;19951;-72
2022/05/21 16:01:15;;;;;;;;;;;;;;;;;;5047843;28;19940;-73
2022/05/21 16:03:43;;;;;;;;;;;;;;;;;;5049374;28;19936;-72
2022/05/21 16:06:12;;;;;;;;;;;;;;;;;;5053446;28;19933;-74
2022/05/21 16:08:40;;;;;;;;;;;;;;;;;;5037698;28;19937;-74
2022/05/21 16:11:18;;;;;;;;;;;;;;;;;;5032581;28;19933;-74
2022/05/21 16:13:46;;;;;;;;;;;;;;;;;;5030229;28;19952;-74
2022/05/21 16:16:15;;;;;;;;;;;;;;;;;;5032614;28;20024;-75
2022/05/21 16:18:44;;;;;;;;;;;;;;;;;;5045641;28;19936;-73
2022/05/21 16:21:12;;;;;;;;;;;;;;;;;;5046942;28;20395;-73
2022/05/21 16:23:41;;;;;;;;;;;;;;;;;;5050383;28;19963;-73
2022/05/21 16:26:15;;;;;;;;;;;;;;;;;;5051760;28;19928;-74
2022/05/21 16:28:43;;;;;;;;;;;;;;;;;;5040759;28;19929;-73
2022/05/21 16:31:14;;;;;;;;;;;;;;;;;;5026371;28;20442;-73
2022/05/21 16:33:42;;;;;;;;;;;;;;;;;;5030430;28;20665;-73
2022/05/21 16:36:14;;;;;;;;;;;;;;;;;;5028951;28;19999;-74
2022/05/21 16:38:42;;;;;;;;;;;;;;;;;;5028575;28;20271;-73
2022/05/21 16:41:13;;;;;;;;;;;;;;;;;;5025578;28;19933;-73
2022/05/21 16:43:41;;;;;;;;;;;;;;;;;;5025424;28;19932;-73
2022/05/21 16:46:16;;;;;;;;;;;;;;;;;;5022978;28;19929;-73
2022/05/21 16:48:44;;;;;;;;;;;;;;;;;;5024210;28;20028;-73
2022/05/21 16:51:12;;;;;;;;;;;;;;;;;;5030413;28;20473;-73
2022/05/21 16:53:40;;;;;;;;;;;;;;;;;;5029775;28;19929;-74
2022/05/21 16:56:16;;;;;;;;;;;;;;;;;;5028930;28;19979;-72
2022/05/21 16:58:44;;;;;;;;;;;;;;;;;;5041363;28;20338;-72
2022/05/21 17:01:12;;;;;;;;;;;;;;;;;;5045339;28;20583;-73
2022/05/21 17:03:40;;;;;;;;;;;;;;;;;;5037462;28;19937;-73
2022/05/21 17:06:14;;;;;;;;;;;;;;;;;;5041792;28;20015;-73
2022/05/21 17:08:42;;;;;;;;;;;;;;;;;;5037671;28;20455;-74
2022/05/21 17:11:13;;;;;;;;;;;;;;;;;;5029144;28;19933;-73
2022/05/21 17:13:41;;;;;;;;;;;;;;;;;;5030411;28;19991;-73
2022/05/21 17:16:13;;;;;;;;;;;;;;;;;;5027854;28;20003;-73
2022/05/21 17:18:41;;;;;;;;;;;;;;;;;;5029703;28;20026;-73